Time;durP1;ratioP1;P1;durP2;ratioP2;P2;SDS_P1;SDS_P2;PMS_P1;PMS_P2;Temp;Humidity;BMP_temperature;BMP_pressure;BME280_temperature;BME280_humidity;BME280_pressure;Samples;Min_cycle;Max_cycle;Signal;HPM_P1;HPM_P2
2022/04/20 00:01:42;;;;;;;2.53;0.93;;;;;;;;;;5028358;28;20049;-69
2022/04/20 00:04:08;;;;;;;1.92;0.88;;;;;;;;;;5029903;28;20056;-69
2022/04/20 00:06:34;;;;;;;3.83;1.25;;;;;;;;;;5028331;28;20044;-71
2022/04/20 00:09:00;;;;;;;3.72;1.10;;;;;;;;;;5029730;28;20042;-71
2022/04/20 00:11:26;;;;;;;1.58;0.93;;;;;;;;;;5028489;28;20064;-70
2022/04/20 00:13:52;;;;;;;2.95;0.77;;;;;;;;;;5029681;28;20061;-68
2022/04/20 00:16:18;;;;;;;3.30;1.48;;;;;;;;;;5029735;28;20541;-72
2022/04/20 00:18:44;;;;;;;2.83;0.80;;;;;;;;;;5029468;28;20128;-73
2022/04/20 00:21:10;;;;;;;5.20;0.93;;;;;;;;;;5028080;28;20081;-73
2022/04/20 00:23:36;;;;;;;2.53;0.90;;;;;;;;;;5029061;28;20057;-70
2022/04/20 00:26:02;;;;;;;1.30;0.70;;;;;;;;;;5029730;28;20110;-70
2022/04/20 00:28:29;;;;;;;1.90;0.90;;;;;;;;;;5029051;28;20080;-70
2022/04/20 00:30:55;;;;;;;2.90;0.88;;;;;;;;;;5028227;28;20050;-70
2022/04/20 00:33:21;;;;;;;2.20;1.00;;;;;;;;;;5029480;28;20042;-70
2022/04/20 00:35:48;;;;;;;1.77;1.00;;;;;;;;;;5029248;28;20049;-70
2022/04/20 00:38:16;;;;;;;2.28;0.82;;;;;;;;;;5029454;28;20422;-71
2022/04/20 00:40:42;;;;;;;1.92;0.85;;;;;;;;;;5028710;28;20053;-70
2022/04/20 00:43:09;;;;;;;1.15;0.70;;;;;;;;;;5029472;28;20046;-70
2022/04/20 00:45:35;;;;;;;3.53;0.88;;;;;;;;;;5029279;28;20422;-71
2022/04/20 00:48:01;;;;;;;4.97;1.00;;;;;;;;;;5028508;28;20041;-71
2022/04/20 00:50:27;;;;;;;2.38;0.82;;;;;;;;;;5029144;28;20045;-71
2022/04/20 00:52:53;;;;;;;2.38;0.77;;;;;;;;;;5029198;28;20091;-70
2022/04/20 00:55:19;;;;;;;2.08;0.80;;;;;;;;;;5028336;28;20415;-72
2022/04/20 00:57:45;;;;;;;2.33;1.00;;;;;;;;;;5027803;28;20183;-71
2022/04/20 01:00:12;;;;;;;1.95;0.90;;;;;;;;;;5029136;28;20129;-71
2022/04/20 01:02:38;;;;;;;3.08;0.82;;;;;;;;;;5029069;28;20053;-71
2022/04/20 01:05:04;;;;;;;2.03;0.80;;;;;;;;;;5028711;28;20629;-71
2022/04/20 01:07:35;;;;;;;2.55;1.00;;;;;;;;;;5028989;28;20102;-71
2022/04/20 01:10:01;;;;;;;2.10;0.73;;;;;;;;;;5029161;28;20041;-71
2022/04/20 01:12:27;;;;;;;2.30;1.00;;;;;;;;;;5029173;28;20044;-71
2022/04/20 01:14:53;;;;;;;2.58;0.80;;;;;;;;;;5029031;28;20099;-71
2022/04/20 01:17:19;;;;;;;1.67;0.88;;;;;;;;;;5028291;28;20041;-71
2022/04/20 01:19:45;;;;;;;2.28;0.73;;;;;;;;;;5028713;28;20053;-71
2022/04/20 01:22:12;;;;;;;2.75;0.80;;;;;;;;;;5028646;28;20045;-70
2022/04/20 01:24:39;;;;;;;3.85;0.65;;;;;;;;;;5028271;28;20440;-70
2022/04/20 01:27:07;;;;;;;2.22;0.93;;;;;;;;;;5029088;28;20425;-71
2022/04/20 01:29:33;;;;;;;1.40;0.77;;;;;;;;;;5010766;28;20069;-70
2022/04/20 01:32:00;;;;;;;2.40;1.13;;;;;;;;;;5028899;28;20045;-71
2022/04/20 01:34:26;;;;;;;2.00;1.00;;;;;;;;;;5030008;28;20049;-68
2022/04/20 01:36:52;;;;;;;2.78;0.98;;;;;;;;;;5031813;28;20045;-69
2022/04/20 01:39:18;;;;;;;11.57;1.27;;;;;;;;;;5032597;28;20136;-71
2022/04/20 01:41:44;;;;;;;3.80;0.82;;;;;;;;;;5031534;28;20049;-71
2022/04/20 01:44:10;;;;;;;3.20;0.75;;;;;;;;;;5032414;28;20360;-71
2022/04/20 01:46:36;;;;;;;2.63;0.82;;;;;;;;;;5032199;28;20426;-72
2022/04/20 01:49:05;;;;;;;4.40;1.48;;;;;;;;;;5031714;28;20045;-72
2022/04/20 01:54:16;;;;;;;2.55;0.77;;;;;;;;;;5031081;28;20049;-72
2022/04/20 01:56:42;;;;;;;4.38;0.93;;;;;;;;;;5031689;28;20095;-72
2022/04/20 01:59:09;;;;;;;2.97;0.80;;;;;;;;;;5030510;28;20578;-71
2022/04/20 02:04:20;;;;;;;2.28;0.90;;;;;;;;;;5031991;28;20538;-72
2022/04/20 02:06:46;;;;;;;3.70;0.77;;;;;;;;;;5030925;28;20473;-71
2022/04/20 02:09:12;;;;;;;4.82;0.80;;;;;;;;;;5031981;28;20396;-72
2022/04/20 02:11:39;;;;;;;2.97;0.93;;;;;;;;;;5030314;28;20460;-72
2022/04/20 02:14:05;;;;;;;1.85;0.70;;;;;;;;;;5030525;28;20045;-71
2022/04/20 02:16:31;;;;;;;2.13;0.80;;;;;;;;;;5030384;28;20410;-70
2022/04/20 02:18:57;;;;;;;2.78;0.75;;;;;;;;;;5030906;28;20412;-70
2022/04/20 02:21:24;;;;;;;3.85;0.80;;;;;;;;;;5031535;28;20088;-70
2022/04/20 02:23:50;;;;;;;17.67;1.20;;;;;;;;;;5029904;28;20041;-71
2022/04/20 02:26:16;;;;;;;1.30;0.68;;;;;;;;;;5031560;28;20038;-70
2022/04/20 02:28:42;;;;;;;2.10;0.90;;;;;;;;;;5031645;28;20041;-71
2022/04/20 02:31:08;;;;;;;3.20;0.70;;;;;;;;;;5031507;28;20045;-71
2022/04/20 02:33:34;;;;;;;3.67;0.80;;;;;;;;;;5031397;28;20068;-70
2022/04/20 02:36:00;;;;;;;1.83;0.60;;;;;;;;;;5031231;28;20094;-70
2022/04/20 02:38:27;;;;;;;4.32;1.63;;;;;;;;;;5031060;28;20077;-71
2022/04/20 02:40:53;;;;;;;3.70;1.05;;;;;;;;;;5030106;28;20061;-71
2022/04/20 02:43:19;;;;;;;1.52;0.73;;;;;;;;;;5031299;28;20099;-71
2022/04/20 02:45:45;;;;;;;3.08;0.82;;;;;;;;;;5028988;28;20111;-71
2022/04/20 02:48:11;;;;;;;3.65;0.73;;;;;;;;;;5031268;28;20049;-71
2022/04/20 02:50:37;;;;;;;2.03;0.80;;;;;;;;;;5031603;28;20041;-71
2022/04/20 02:53:03;;;;;;;2.17;0.82;;;;;;;;;;5029801;28;20521;-71
2022/04/20 02:55:29;;;;;;;3.85;1.15;;;;;;;;;;5030888;28;20045;-71
2022/04/20 02:57:56;;;;;;;2.60;0.88;;;;;;;;;;5030673;28;20111;-71
2022/04/20 03:00:22;;;;;;;2.60;0.80;;;;;;;;;;5030666;28;20552;-71
2022/04/20 03:02:49;;;;;;;1.92;0.70;;;;;;;;;;5029770;28;20131;-71
2022/04/20 03:05:15;;;;;;;3.03;0.77;;;;;;;;;;5030937;28;20053;-70
2022/04/20 03:07:41;;;;;;;2.40;0.90;;;;;;;;;;5030735;28;20038;-70
2022/04/20 03:10:07;;;;;;;2.60;0.90;;;;;;;;;;5030930;28;20047;-70
2022/04/20 03:12:33;;;;;;;4.22;0.98;;;;;;;;;;5030314;28;20053;-70
2022/04/20 03:14:59;;;;;;;2.45;0.73;;;;;;;;;;5031081;28;20131;-70
2022/04/20 03:17:26;;;;;;;2.58;0.63;;;;;;;;;;5029227;28;20045;-70
2022/04/20 03:19:52;;;;;;;1.92;0.80;;;;;;;;;;5029361;28;20050;-70
2022/04/20 03:22:18;;;;;;;2.30;1.13;;;;;;;;;;5029578;28;20045;-70
2022/04/20 03:24:44;;;;;;;2.80;0.85;;;;;;;;;;5029843;28;20534;-69
2022/04/20 03:27:10;;;;;;;2.17;0.80;;;;;;;;;;5030848;28;20097;-70
2022/04/20 03:29:37;;;;;;;2.05;0.80;;;;;;;;;;5030460;28;20124;-70
2022/04/20 03:32:05;;;;;;;1.08;0.70;;;;;;;;;;5028871;28;20044;-70
2022/04/20 03:34:31;;;;;;;1.52;0.73;;;;;;;;;;5029798;28;20495;-70
2022/04/20 03:36:57;;;;;;;3.75;0.95;;;;;;;;;;5030215;28;20071;-70
2022/04/20 03:39:23;;;;;;;4.03;0.77;;;;;;;;;;5028703;28;20045;-69
2022/04/20 03:41:49;;;;;;;1.65;0.75;;;;;;;;;;5030235;28;20041;-69
2022/04/20 03:44:15;;;;;;;1.45;0.60;;;;;;;;;;5030171;28;20140;-70
2022/04/20 03:46:42;;;;;;;4.50;1.10;;;;;;;;;;5028369;28;20489;-71
2022/04/20 03:49:08;;;;;;;2.75;1.10;;;;;;;;;;5029962;28;20129;-71
2022/04/20 03:51:34;;;;;;;1.20;0.77;;;;;;;;;;5029970;28;20045;-72
2022/04/20 03:54:00;;;;;;;1.83;0.70;;;;;;;;;;5030172;28;20128;-71
2022/04/20 03:56:26;;;;;;;4.22;0.95;;;;;;;;;;5027985;28;20419;-71
2022/04/20 03:58:52;;;;;;;1.65;0.70;;;;;;;;;;5028346;28;20054;-70
2022/04/20 04:01:18;;;;;;;1.80;0.60;;;;;;;;;;5029627;28;20088;-70
2022/04/20 04:03:44;;;;;;;3.83;0.80;;;;;;;;;;5030385;28;20061;-70
2022/04/20 04:06:10;;;;;;;1.95;0.70;;;;;;;;;;5031364;28;20418;-70
2022/04/20 04:08:36;;;;;;;3.10;0.90;;;;;;;;;;5030628;28;20045;-69
2022/04/20 04:11:02;;;;;;;2.13;0.90;;;;;;;;;;5028874;28;20045;-70
2022/04/20 04:13:28;;;;;;;2.78;0.90;;;;;;;;;;5029494;28;20052;-70
2022/04/20 04:15:54;;;;;;;2.38;0.80;;;;;;;;;;5029319;28;20041;-69
2022/04/20 04:18:20;;;;;;;4.93;1.17;;;;;;;;;;5029760;28;20044;-70
2022/04/20 04:20:46;;;;;;;1.30;0.80;;;;;;;;;;5029603;28;20556;-70
2022/04/20 04:23:12;;;;;;;1.02;0.70;;;;;;;;;;5029656;28;20087;-70
2022/04/20 04:25:38;;;;;;;1.60;0.70;;;;;;;;;;5028794;28;20060;-69
2022/04/20 04:28:05;;;;;;;2.88;0.70;;;;;;;;;;5029390;28;20056;-69
2022/04/20 04:30:32;;;;;;;2.85;0.68;;;;;;;;;;5029649;28;20104;-71
2022/04/20 04:32:58;;;;;;;2.75;0.90;;;;;;;;;;5011725;28;20049;-69
2022/04/20 04:35:24;;;;;;;2.00;0.73;;;;;;;;;;5029281;28;20080;-69
2022/04/20 04:37:50;;;;;;;1.02;0.75;;;;;;;;;;5028765;28;20128;-69
2022/04/20 04:40:18;;;;;;;2.20;0.70;;;;;;;;;;5028890;28;20578;-69
2022/04/20 04:42:44;;;;;;;3.23;1.43;;;;;;;;;;5029127;28;20046;-71
2022/04/20 04:50:40;;;;;;;1.25;0.70;;;;;;;;;;5029159;28;20056;-69
2022/04/20 04:53:06;;;;;;;1.08;0.70;;;;;;;;;;5029439;28;20454;-69
2022/04/20 04:55:32;;;;;;;1.58;0.63;;;;;;;;;;5029401;28;20081;-70
2022/04/20 04:57:58;;;;;;;2.15;0.80;;;;;;;;;;5027067;28;20053;-69
2022/04/20 05:00:25;;;;;;;14.13;1.83;;;;;;;;;;5028968;28;20049;-72
2022/04/20 05:02:51;;;;;;;2.47;1.15;;;;;;;;;;5029406;28;20060;-72
2022/04/20 05:05:17;;;;;;;6.28;0.90;;;;;;;;;;5029414;28;20037;-73
2022/04/20 05:07:43;;;;;;;2.10;0.93;;;;;;;;;;5011081;28;20049;-72
2022/04/20 05:10:10;;;;;;;7.85;0.90;;;;;;;;;;5033415;28;20050;-73
2022/04/20 05:12:36;;;;;;;6.20;0.90;;;;;;;;;;5033362;28;20095;-71
2022/04/20 05:15:02;;;;;;;4.25;0.93;;;;;;;;;;5032984;28;20537;-72
2022/04/20 05:17:28;;;;;;;4.53;0.98;;;;;;;;;;5018558;28;20077;-72
2022/04/20 05:19:54;;;;;;;3.55;0.90;;;;;;;;;;5012244;28;20049;-74
2022/04/20 05:22:20;;;;;;;2.22;0.68;;;;;;;;;;5012227;28;20127;-74
2022/04/20 05:24:46;;;;;;;1.98;0.73;;;;;;;;;;5011678;28;20060;-72
2022/04/20 05:27:13;;;;;;;5.88;1.50;;;;;;;;;;5011926;28;20132;-73
2022/04/20 05:29:39;;;;;;;1.83;0.80;;;;;;;;;;5011900;28;20058;-72
2022/04/20 05:32:06;;;;;;;1.63;0.75;;;;;;;;;;5020691;28;20529;-72
2022/04/20 05:34:33;;;;;;;6.15;2.03;;;;;;;;;;5032162;28;20139;-70
2022/04/20 05:42:28;;;;;;;2.33;0.88;;;;;;;;;;5047759;28;20053;-68
2022/04/20 05:44:55;;;;;;;3.13;0.70;;;;;;;;;;5014912;28;20049;-68
2022/04/20 05:47:21;;;;;;;5.28;0.80;;;;;;;;;;5032785;28;20045;-68
2022/04/20 05:49:47;;;;;;;1.73;0.90;;;;;;;;;;5031654;28;20489;-68
2022/04/20 05:52:13;;;;;;;1.23;0.90;;;;;;;;;;5032596;28;20045;-68
2022/04/20 05:54:39;;;;;;;2.65;0.85;;;;;;;;;;5031574;28;20059;-68
2022/04/20 05:57:05;;;;;;;1.67;0.70;;;;;;;;;;5032284;28;20387;-68
2022/04/20 05:59:31;;;;;;;2.00;0.80;;;;;;;;;;5032118;28;20557;-69
2022/04/20 06:01:57;;;;;;;1.25;0.68;;;;;;;;;;5032736;28;20391;-69
2022/04/20 06:04:25;;;;;;;4.65;1.00;;;;;;;;;;5031836;28;20046;-68
2022/04/20 06:06:51;;;;;;;4.75;0.90;;;;;;;;;;5032049;28;20050;-68
2022/04/20 06:09:17;;;;;;;2.10;0.77;;;;;;;;;;5032335;28;20095;-69
2022/04/20 06:11:43;;;;;;;1.30;0.70;;;;;;;;;;5030522;28;20136;-70
2022/04/20 06:14:10;;;;;;;2.28;0.60;;;;;;;;;;5030936;28;20077;-71
2022/04/20 06:16:36;;;;;;;1.63;0.65;;;;;;;;;;5014248;28;20570;-71
2022/04/20 06:19:02;;;;;;;2.72;0.60;;;;;;;;;;5031568;28;20092;-70
2022/04/20 06:21:28;;;;;;;3.55;0.98;;;;;;;;;;5030771;28;20461;-70
2022/04/20 06:23:54;;;;;;;1.40;0.60;;;;;;;;;;5032061;28;20506;-70
2022/04/20 06:26:20;;;;;;;3.25;0.73;;;;;;;;;;5030297;28;20495;-70
2022/04/20 06:28:46;;;;;;;2.60;0.90;;;;;;;;;;5030528;28;20053;-70
2022/04/20 06:31:12;;;;;;;1.17;0.60;;;;;;;;;;5030224;28;20495;-70
2022/04/20 06:33:38;;;;;;;3.70;0.52;;;;;;;;;;5030400;28;20494;-71
2022/04/20 06:36:04;;;;;;;2.05;0.60;;;;;;;;;;5013941;28;20423;-70
2022/04/20 06:38:30;;;;;;;1.80;0.95;;;;;;;;;;5031220;28;20038;-70
2022/04/20 06:40:58;;;;;;;1.70;0.65;;;;;;;;;;5031574;28;20041;-69
2022/04/20 06:43:25;;;;;;;1.83;0.50;;;;;;;;;;5031612;28;20061;-70
2022/04/20 06:45:51;;;;;;;1.52;0.60;;;;;;;;;;5031237;28;20042;-71
2022/04/20 06:48:17;;;;;;;1.55;0.65;;;;;;;;;;5031301;28;20045;-71
2022/04/20 06:50:43;;;;;;;1.23;0.80;;;;;;;;;;5013679;28;20041;-72
2022/04/20 06:58:41;;;;;;;2.50;0.80;;;;;;;;;;5045372;28;20514;-71
2022/04/20 07:01:07;;;;;;;2.53;1.00;;;;;;;;;;5030111;28;20057;-69
2022/04/20 07:03:37;;;;;;;10.63;1.15;;;;;;;;;;5031088;28;20495;-72
2022/04/20 07:06:04;;;;;;;4.55;0.98;;;;;;;;;;5012503;28;20149;-74
2022/04/20 07:08:30;;;;;;;1.58;0.68;;;;;;;;;;5029531;28;20060;-73
2022/04/20 07:10:57;;;;;;;3.25;0.63;;;;;;;;;;5030585;28;20442;-74
2022/04/20 07:13:23;;;;;;;4.68;0.80;;;;;;;;;;5030546;28;20118;-74
2022/04/20 07:15:49;;;;;;;2.63;1.10;;;;;;;;;;5029210;28;20098;-74
2022/04/20 07:18:15;;;;;;;3.72;0.80;;;;;;;;;;5028494;28;20057;-75
2022/04/20 07:20:42;;;;;;;9.00;1.73;;;;;;;;;;5030740;28;20038;-69
2022/04/20 07:23:09;;;;;;;8.48;2.30;;;;;;;;;;5030342;28;20522;-71
2022/04/20 07:25:36;;;;;;;7.82;2.10;;;;;;;;;;5029578;28;20531;-71
2022/04/20 07:28:02;;;;;;;7.60;2.95;;;;;;;;;;5028524;28;20190;-70
2022/04/20 07:30:28;;;;;;;7.78;2.42;;;;;;;;;;5030054;28;20057;-70
2022/04/20 07:32:55;;;;;;;3.88;2.35;;;;;;;;;;5029928;28;20195;-70
2022/04/20 07:35:21;;;;;;;4.45;2.00;;;;;;;;;;5029868;28;20415;-70
2022/04/20 07:37:47;;;;;;;5.28;2.40;;;;;;;;;;5029777;28;20052;-70
2022/04/20 07:40:14;;;;;;;5.32;2.25;;;;;;;;;;5030078;28;20041;-70
2022/04/20 07:42:40;;;;;;;7.38;2.05;;;;;;;;;;5030384;28;20167;-70
2022/04/20 07:45:06;;;;;;;3.40;1.80;;;;;;;;;;5030645;28;20049;-70
2022/04/20 07:47:32;;;;;;;6.82;2.30;;;;;;;;;;5029673;28;20048;-70
2022/04/20 07:52:48;;;;;;;6.85;1.95;;;;;;;;;;5025501;28;20045;-71
2022/04/20 07:55:16;;;;;;;5.22;2.60;;;;;;;;;;5018497;28;20046;-71
2022/04/20 07:57:45;;;;;;;3.85;2.10;;;;;;;;;;5008916;28;20058;-72
2022/04/20 08:00:12;;;;;;;11.70;2.00;;;;;;;;;;5009308;28;20057;-71
2022/04/20 08:02:38;;;;;;;6.40;1.95;;;;;;;;;;5010142;28;20511;-71
2022/04/20 08:05:05;;;;;;;3.47;1.85;;;;;;;;;;5010252;28;20089;-72
2022/04/20 08:07:31;;;;;;;4.85;2.20;;;;;;;;;;5009115;28;20121;-71
2022/04/20 08:09:57;;;;;;;4.15;2.00;;;;;;;;;;5014417;28;20104;-71
2022/04/20 08:12:24;;;;;;;5.85;2.15;;;;;;;;;;5016360;28;20041;-71
2022/04/20 08:14:51;;;;;;;7.60;2.63;;;;;;;;;;5009116;28;20049;-71
2022/04/20 08:17:17;;;;;;;6.40;2.00;;;;;;;;;;5012625;28;20068;-71
2022/04/20 08:19:43;;;;;;;5.78;2.20;;;;;;;;;;5012943;28;20053;-71
2022/04/20 08:22:10;;;;;;;5.82;2.00;;;;;;;;;;5014129;28;20380;-70
2022/04/20 08:24:36;;;;;;;5.07;2.42;;;;;;;;;;5018019;28;20126;-71
2022/04/20 08:27:02;;;;;;;8.00;2.08;;;;;;;;;;5020996;28;20052;-69
2022/04/20 08:29:28;;;;;;;4.07;2.03;;;;;;;;;;5029758;28;20052;-70
2022/04/20 08:31:54;;;;;;;4.72;2.03;;;;;;;;;;5015905;28;20076;-71
2022/04/20 08:34:20;;;;;;;3.90;2.13;;;;;;;;;;5029980;28;20491;-72
2022/04/20 08:36:46;;;;;;;5.07;1.90;;;;;;;;;;5012145;28;20078;-70
2022/04/20 08:39:12;;;;;;;4.13;1.65;;;;;;;;;;5018314;28;20081;-71
2022/04/20 08:41:40;;;;;;;4.50;2.30;;;;;;;;;;5026292;28;20046;-71
2022/04/20 08:44:08;;;;;;;3.25;1.60;;;;;;;;;;5026896;28;20046;-71
2022/04/20 08:46:37;;;;;;;5.25;2.38;;;;;;;;;;5010025;28;20128;-71
2022/04/20 08:49:04;;;;;;;3.10;1.67;;;;;;;;;;5018937;28;20080;-70
2022/04/20 08:52:37;;;;;;;4.22;1.80;;;;;;;;;;5027970;28;20161;-70
2022/04/20 08:54:18;;;;;;;3.33;1.80;;;;;;;;;;5029094;28;20052;-70
2022/04/20 08:59:29;;;;;;;3.42;1.65;;;;;;;;;;5028768;28;20048;-70
2022/04/20 09:01:57;;;;;;;3.65;1.60;;;;;;;;;;5028393;28;20053;-69
2022/04/20 09:04:24;;;;;;;2.60;1.80;;;;;;;;;;5021256;28;20042;-70
2022/04/20 09:06:50;;;;;;;3.45;1.90;;;;;;;;;;5029035;28;20458;-71
2022/04/20 09:09:18;;;;;;;4.22;1.70;;;;;;;;;;5029338;28;20048;-71
2022/04/20 09:11:46;;;;;;;3.67;1.67;;;;;;;;;;5029506;28;20052;-70
2022/04/20 09:14:16;;;;;;;3.42;1.77;;;;;;;;;;5028850;28;20140;-71
2022/04/20 09:16:43;;;;;;;3.03;1.58;;;;;;;;;;5029338;28;20053;-71
2022/04/20 09:19:11;;;;;;;3.40;2.03;;;;;;;;;;5011893;28;20042;-71
2022/04/20 09:21:37;;;;;;;6.28;2.45;;;;;;;;;;5013113;28;20426;-71
2022/04/20 09:24:07;;;;;;;16.67;4.38;;;;;;;;;;5016562;28;20051;-71
2022/04/20 09:26:33;;;;;;;8.80;2.58;;;;;;;;;;5015556;28;20053;-71
2022/04/20 09:29:06;;;;;;;7.82;2.28;;;;;;;;;;5009724;28;20077;-70
2022/04/20 09:31:45;;;;;;;8.48;2.47;;;;;;;;;;5010017;28;20531;-71
2022/04/20 09:34:53;;;;;;;6.93;2.30;;;;;;;;;;5009055;28;20053;-71
2022/04/20 09:37:21;;;;;;;6.10;2.03;;;;;;;;;;5012788;28;20046;-71
2022/04/20 09:39:47;;;;;;;5.57;2.28;;;;;;;;;;5013895;28;20046;-71
2022/04/20 09:42:14;;;;;;;4.32;2.13;;;;;;;;;;5013779;28;20391;-71
2022/04/20 09:44:53;;;;;;;6.65;1.80;;;;;;;;;;5016458;28;20077;-72
2022/04/20 09:50:09;;;;;;;;;;;;;;;;;;5023734;28;20164;-72
2022/04/20 09:52:42;;;;;;;6.88;1.70;;;;;;;;;;5014028;28;19929;-72
2022/04/20 09:55:11;;;;;;;2.63;1.50;;;;;;;;;;5017059;28;20045;-73
2022/04/20 09:57:37;;;;;;;4.67;1.80;;;;;;;;;;5018543;28;20282;-72
2022/04/20 10:00:10;;;;;;;2.45;1.40;;;;;;;;;;5017458;28;20414;-72
2022/04/20 10:02:54;;;;;;;5.25;1.77;;;;;;;;;;5017998;28;20423;-72
2022/04/20 10:05:23;;;;;;;3.00;1.58;;;;;;;;;;5019747;28;20550;-70
2022/04/20 10:07:51;;;;;;;3.08;1.40;;;;;;;;;;5015946;28;20053;-70
2022/04/20 10:10:17;;;;;;;2.13;1.25;;;;;;;;;;5014329;28;20053;-71
2022/04/20 10:12:46;;;;;;;4.70;1.35;;;;;;;;;;5017108;28;20045;-72
2022/04/20 10:17:58;;;;;;;2.97;1.35;;;;;;;;;;5018662;28;20325;-72
2022/04/20 10:20:27;;;;;;;2.63;1.38;;;;;;;;;;5018638;28;20075;-71
2022/04/20 10:22:53;;;;;;;;;;;;;;;;;;5019800;28;20042;-72
2022/04/20 10:25:20;;;;;;;2.25;1.38;;;;;;;;;;5016396;28;19921;-70
2022/04/20 10:27:58;;;;;;;4.53;1.70;;;;;;;;;;5015013;28;20041;-71
2022/04/20 10:30:31;;;;;;;2.28;1.20;;;;;;;;;;5015471;28;20042;-71
2022/04/20 10:33:16;;;;;;;2.85;1.55;;;;;;;;;;5019132;28;20057;-72
2022/04/20 10:36:02;;;;;;;2.42;1.45;;;;;;;;;;5015384;28;20050;-71
2022/04/20 10:38:32;;;;;;;3.17;1.63;;;;;;;;;;5025101;28;20056;-72
2022/04/20 10:40:59;;;;;;;2.38;1.13;;;;;;;;;;5016879;28;20042;-71
2022/04/20 10:43:25;;;;;;;2.58;1.17;;;;;;;;;;5016708;28;20079;-72
2022/04/20 10:46:07;;;;;;;2.20;1.10;;;;;;;;;;5015691;28;20046;-72
2022/04/20 10:48:47;;;;;;;2.38;1.00;;;;;;;;;;5016454;28;20200;-72
2022/04/20 10:51:25;;;;;;;2.55;1.20;;;;;;;;;;5013756;28;20046;-72
2022/04/20 10:53:51;;;;;;;2.30;1.17;;;;;;;;;;5017822;28;20068;-71
2022/04/20 10:56:18;;;;;;;2.80;1.55;;;;;;;;;;5016502;28;20049;-71
2022/04/20 10:59:07;;;;;;;2.42;1.10;;;;;;;;;;5011712;28;20176;-72
2022/04/20 11:01:53;;;;;;;4.35;1.50;;;;;;;;;;5015624;28;20045;-71
2022/04/20 11:04:43;;;;;;;4.13;1.35;;;;;;;;;;5019664;28;20041;-71
2022/04/20 11:07:09;;;;;;;1.88;1.15;;;;;;;;;;5001360;28;20519;-72
2022/04/20 11:09:52;;;;;;;2.58;1.40;;;;;;;;;;4996886;28;20056;-71
2022/04/20 11:18:38;;;;;;;2.03;1.10;;;;;;;;;;5014281;28;20050;-72
2022/04/20 11:21:07;;;;;;;2.08;1.20;;;;;;;;;;5016090;28;20038;-72
2022/04/20 11:23:48;;;;;;;1.73;0.93;;;;;;;;;;5018632;28;20627;-73
2022/04/20 11:26:19;;;;;;;2.08;1.10;;;;;;;;;;5011476;28;20050;-70
2022/04/20 11:28:46;;;;;;;3.08;1.20;;;;;;;;;;5017092;28;20124;-69
2022/04/20 11:31:12;;;;;;;2.92;1.02;;;;;;;;;;5018634;28;20041;-71
2022/04/20 11:33:39;;;;;;;4.68;1.13;;;;;;;;;;5013277;28;20492;-70
2022/04/20 11:36:05;;;;;;;9.40;2.33;;;;;;;;;;5013532;28;20082;-70
2022/04/20 11:38:39;;;;;;;4.28;1.23;;;;;;;;;;5017205;28;20510;-69
2022/04/20 11:41:05;;;;;;;9.75;1.35;;;;;;;;;;5015212;28;20137;-69
2022/04/20 11:43:32;;;;;;;12.68;1.40;;;;;;;;;;5024086;28;20042;-69
2022/04/20 11:45:58;;;;;;;6.57;1.35;;;;;;;;;;5015291;28;20069;-69
2022/04/20 11:48:25;;;;;;;2.88;1.08;;;;;;;;;;5014449;28;20492;-69
2022/04/20 11:50:55;;;;;;;4.35;1.20;;;;;;;;;;5015874;28;20076;-69
2022/04/20 11:53:21;;;;;;;4.13;1.40;;;;;;;;;;5014823;28;20049;-70
2022/04/20 11:55:47;;;;;;;5.47;1.40;;;;;;;;;;5014248;28;20044;-69
2022/04/20 11:58:16;;;;;;;3.10;1.30;;;;;;;;;;5014578;28;20055;-69
2022/04/20 12:00:44;;;;;;;2.35;1.27;;;;;;;;;;5015444;28;20049;-69
2022/04/20 12:03:10;;;;;;;3.67;1.33;;;;;;;;;;5015374;28;20044;-69
2022/04/20 12:05:36;;;;;;;9.25;1.30;;;;;;;;;;5015510;28;20041;-69
2022/04/20 12:08:02;;;;;;;3.50;1.05;;;;;;;;;;5010699;28;20136;-70
2022/04/20 12:10:28;;;;;;;2.60;1.10;;;;;;;;;;5013280;28;20041;-71
2022/04/20 12:12:54;;;;;;;2.92;1.20;;;;;;;;;;5015616;28;20096;-68
2022/04/20 12:15:21;;;;;;;8.52;1.92;;;;;;;;;;5010303;28;20131;-70
2022/04/20 12:17:47;;;;;;;2.13;1.10;;;;;;;;;;5013039;28;20514;-68
2022/04/20 12:20:13;;;;;;;2.15;1.08;;;;;;;;;;5012991;28;20128;-69
2022/04/20 12:22:39;;;;;;;3.28;1.20;;;;;;;;;;5013760;28;20048;-68
2022/04/20 12:25:07;;;;;;;5.05;1.23;;;;;;;;;;5013601;28;20048;-69
2022/04/20 12:27:49;;;;;;;3.00;1.20;;;;;;;;;;5015236;28;20546;-70
2022/04/20 12:30:15;;;;;;;3.15;1.17;;;;;;;;;;5010128;28;20462;-68
2022/04/20 12:32:41;;;;;;;3.03;1.13;;;;;;;;;;5014456;28;20069;-69
2022/04/20 12:35:08;;;;;;;1.88;1.20;;;;;;;;;;5015351;28;20047;-70
2022/04/20 12:37:39;;;;;;;2.22;1.17;;;;;;;;;;5010823;28;20065;-69
2022/04/20 12:40:23;;;;;;;1.77;1.00;;;;;;;;;;5014285;28;20541;-68
2022/04/20 12:43:05;;;;;;;1.88;1.00;;;;;;;;;;5015009;28;20137;-71
2022/04/20 12:45:32;;;;;;;2.53;1.10;;;;;;;;;;5010434;28;20081;-72
2022/04/20 12:48:03;;;;;;;1.73;0.90;;;;;;;;;;5014287;28;20422;-70
2022/04/20 12:50:34;;;;;;;3.17;1.05;;;;;;;;;;5012485;28;20046;-69
2022/04/20 12:53:01;;;;;;;4.45;1.20;;;;;;;;;;5011475;28;20641;-70
2022/04/20 12:55:35;;;;;;;4.78;0.85;;;;;;;;;;5013040;28;20052;-70
2022/04/20 13:03:37;;;;;;;4.47;1.00;;;;;;;;;;5013723;28;20048;-72
2022/04/20 13:06:06;;;;;;;2.55;1.20;;;;;;;;;;5013990;28;20052;-71
2022/04/20 13:08:32;;;;;;;4.80;1.20;;;;;;;;;;5015501;28;20537;-71
2022/04/20 13:10:58;;;;;;;4.05;1.00;;;;;;;;;;5012090;28;20064;-72
2022/04/20 13:13:25;;;;;;;2.50;1.02;;;;;;;;;;5013584;28;20124;-71
2022/04/20 13:15:51;;;;;;;6.35;1.20;;;;;;;;;;5012795;28;20496;-72
2022/04/20 13:18:17;;;;;;;3.00;1.35;;;;;;;;;;5011526;28;20051;-71
2022/04/20 13:20:45;;;;;;;2.10;0.80;;;;;;;;;;5014221;28;20133;-72
2022/04/20 13:23:11;;;;;;;3.75;1.00;;;;;;;;;;5010886;28;20104;-70
2022/04/20 13:28:22;;;;;;;2.88;0.88;;;;;;;;;;5012228;28;20073;-71
2022/04/20 13:30:49;;;;;;;3.10;0.90;;;;;;;;;;5012146;28;20117;-71
2022/04/20 13:33:15;;;;;;;3.20;1.15;;;;;;;;;;5016398;28;20116;-71
2022/04/20 13:35:47;;;;;;;4.85;1.20;;;;;;;;;;5019888;28;20125;-72
2022/04/20 13:38:13;;;;;;;2.67;0.95;;;;;;;;;;5015290;28;20104;-71
2022/04/20 13:40:40;;;;;;;4.03;1.00;;;;;;;;;;5011114;28;20385;-70
2022/04/20 13:43:07;;;;;;;2.55;1.27;;;;;;;;;;5018191;28;20046;-71
2022/04/20 13:45:33;;;;;;;2.95;1.45;;;;;;;;;;5015616;28;20053;-71
2022/04/20 13:47:59;;;;;;;7.28;1.40;;;;;;;;;;5015952;28;20137;-71
2022/04/20 13:50:26;;;;;;;2.83;1.05;;;;;;;;;;5017403;28;20704;-71
2022/04/20 13:52:55;;;;;;;3.25;1.30;;;;;;;;;;5014749;28;20054;-71
2022/04/20 13:55:21;;;;;;;2.28;1.30;;;;;;;;;;5017293;28;20518;-71
2022/04/20 13:57:48;;;;;;;4.07;1.20;;;;;;;;;;5013371;28;20586;-71
2022/04/20 14:00:14;;;;;;;3.10;1.58;;;;;;;;;;5017036;28;20049;-71
2022/04/20 14:02:41;;;;;;;3.45;1.52;;;;;;;;;;5014397;28;20500;-71
2022/04/20 14:05:11;;;;;;;10.25;1.85;;;;;;;;;;5033696;28;20449;-71
2022/04/20 14:07:37;;;;;;;3.03;1.30;;;;;;;;;;5022240;28;20073;-70
2022/04/20 14:10:05;;;;;;;3.60;1.67;;;;;;;;;;5017017;28;20046;-70
2022/04/20 14:12:31;;;;;;;4.88;1.38;;;;;;;;;;5021134;28;20092;-71
2022/04/20 14:14:59;;;;;;;5.00;1.65;;;;;;;;;;5016763;28;20507;-69
2022/04/20 14:17:26;;;;;;;3.20;1.55;;;;;;;;;;5016217;28;20081;-70
2022/04/20 14:19:52;;;;;;;3.63;1.80;;;;;;;;;;5017968;28;20053;-71
2022/04/20 14:22:21;;;;;;;7.70;1.80;;;;;;;;;;5012699;28;20124;-70
2022/04/20 14:24:47;;;;;;;3.78;1.50;;;;;;;;;;5014943;28;20042;-71
2022/04/20 14:32:48;;;;;;;3.67;1.50;;;;;;;;;;5002314;28;20053;-70
2022/04/20 14:35:15;;;;;;;4.75;1.58;;;;;;;;;;5017003;28;20132;-71
2022/04/20 14:37:41;;;;;;;2.92;1.50;;;;;;;;;;5016369;28;20058;-71
2022/04/20 14:40:07;;;;;;;4.03;1.52;;;;;;;;;;5012939;28;20443;-70
2022/04/20 14:42:34;;;;;;;3.45;1.90;;;;;;;;;;5016622;28;20073;-71
2022/04/20 14:45:03;;;;;;;2.78;1.50;;;;;;;;;;5017155;28;20399;-71
2022/04/20 14:47:29;;;;;;;3.97;1.30;;;;;;;;;;5018355;28;20041;-70
2022/04/20 14:49:55;;;;;;;2.72;1.45;;;;;;;;;;5014825;28;20112;-71
2022/04/20 14:52:21;;;;;;;3.45;1.83;;;;;;;;;;5015751;28;20041;-70
2022/04/20 14:54:47;;;;;;;2.88;1.70;;;;;;;;;;5016821;28;20594;-70
2022/04/20 14:57:13;;;;;;;3.35;1.55;;;;;;;;;;5015128;28;20111;-70
2022/04/20 14:59:39;;;;;;;3.30;1.63;;;;;;;;;;5017122;28;20050;-69
2022/04/20 15:02:06;;;;;;;5.10;2.10;;;;;;;;;;5017596;28;20100;-69
2022/04/20 15:04:34;;;;;;;4.90;1.58;;;;;;;;;;5015821;28;20045;-70
2022/04/20 15:07:02;;;;;;;1.83;1.48;;;;;;;;;;5011742;28;20038;-70
2022/04/20 15:09:28;;;;;;;7.57;1.92;;;;;;;;;;5013090;28;20042;-70
2022/04/20 15:11:54;;;;;;;3.20;1.80;;;;;;;;;;5017034;28;20088;-70
2022/04/20 15:14:21;;;;;;;2.70;1.70;;;;;;;;;;5011029;28;20464;-70
2022/04/20 15:16:48;;;;;;;2.38;1.50;;;;;;;;;;5015801;28;20411;-69
2022/04/20 15:19:16;;;;;;;4.20;1.85;;;;;;;;;;5015159;28;20045;-69
2022/04/20 15:21:43;;;;;;;2.55;1.60;;;;;;;;;;5024281;28;20041;-69
2022/04/20 15:24:09;;;;;;;3.40;2.03;;;;;;;;;;5014722;28;20176;-69
2022/04/20 15:26:36;;;;;;;4.18;2.45;;;;;;;;;;5017726;28;20053;-69
2022/04/20 15:29:02;;;;;;;22.45;2.17;;;;;;;;;;5014044;28;20042;-70
2022/04/20 15:36:40;;;;;;;3.60;1.70;;;;;;;;;;5000092;23;20073;-70
2022/04/20 15:39:09;;;;;;;3.15;1.80;;;;;;;;;;4989469;28;20423;-70
2022/04/20 15:41:36;;;;;;;3.08;1.70;;;;;;;;;;4988798;28;20050;-70
2022/04/20 15:44:03;;;;;;;3.17;1.88;;;;;;;;;;4989142;28;20385;-71